createdAt,value
2022-07-30T00:00:50.909Z,19.30
2022-07-30T00:03:18.241Z,19.30
2022-07-30T00:05:45.068Z,19.30
2022-07-30T00:08:11.831Z,19.30
2022-07-30T00:10:38.615Z,19.30
2022-07-30T00:13:10.738Z,19.40
2022-07-30T00:15:41.117Z,19.40
2022-07-30T00:18:08.023Z,19.40
2022-07-30T00:20:34.872Z,19.40
2022-07-30T00:23:03.092Z,19.40
2022-07-30T00:25:30.064Z,19.40
2022-07-30T00:27:56.810Z,19.40
2022-07-30T00:30:25.089Z,19.40
2022-07-30T00:32:51.918Z,19.40
2022-07-30T00:35:18.937Z,19.40
2022-07-30T00:37:45.971Z,19.40
2022-07-30T00:40:13.285Z,19.40
2022-07-30T00:42:41.440Z,19.40
2022-07-30T00:45:10.178Z,19.40
2022-07-30T00:47:39.416Z,19.40
2022-07-30T00:50:08.643Z,19.40
2022-07-30T00:52:35.782Z,19.40
2022-07-30T00:55:05.200Z,19.40
2022-07-30T00:57:32.154Z,19.30
2022-07-30T00:59:58.965Z,19.30
2022-07-30T01:02:25.762Z,19.30
2022-07-30T01:04:54.106Z,19.30
2022-07-30T01:07:20.830Z,19.20
2022-07-30T01:09:50.867Z,19.20
2022-07-30T01:12:20.624Z,19.20
2022-07-30T01:14:47.779Z,19.10
2022-07-30T01:17:14.578Z,19.10
2022-07-30T01:19:42.913Z,19.00
2022-07-30T01:22:17.536Z,19.00
2022-07-30T01:24:50.144Z,19.00
2022-07-30T01:27:20.740Z,19.00
2022-07-30T01:29:48.782Z,18.90
2022-07-30T01:32:17.592Z,18.90
2022-07-30T01:34:46.066Z,18.90
2022-07-30T01:37:13.665Z,18.90
2022-07-30T01:39:41.341Z,18.80
2022-07-30T01:42:09.657Z,18.80
2022-07-30T01:44:38.971Z,18.80
2022-07-30T01:47:07.872Z,18.80
2022-07-30T01:49:36.309Z,18.70
2022-07-30T01:52:04.043Z,18.70
2022-07-30T01:54:33.316Z,18.70
2022-07-30T01:57:02.491Z,18.70
2022-07-30T01:59:33.200Z,18.70
2022-07-30T02:02:01.938Z,18.60
2022-07-30T02:04:29.682Z,18.60
2022-07-30T02:07:01.120Z,18.60
2022-07-30T02:09:34.271Z,18.60
2022-07-30T02:12:02.681Z,18.60
2022-07-30T02:14:39.303Z,18.60
2022-07-30T02:17:08.546Z,18.60
2022-07-30T02:19:52.870Z,18.60
2022-07-30T02:22:23.405Z,18.60
2022-07-30T02:24:51.134Z,18.60
2022-07-30T02:27:22.316Z,18.50
2022-07-30T02:29:51.056Z,18.50
2022-07-30T02:32:22.148Z,18.50
2022-07-30T02:34:54.215Z,18.50
2022-07-30T02:37:42.862Z,18.50
2022-07-30T02:40:15.700Z,18.50
2022-07-30T02:42:43.960Z,18.40
2022-07-30T02:45:13.102Z,18.40
2022-07-30T02:47:44.462Z,18.40
2022-07-30T02:50:17.864Z,18.40
2022-07-30T02:52:46.901Z,18.40
2022-07-30T02:55:14.519Z,18.30
2022-07-30T02:57:43.494Z,18.30
2022-07-30T03:00:12.205Z,18.30
2022-07-30T03:02:39.962Z,18.30
2022-07-30T03:05:14.593Z,18.20
2022-07-30T03:07:42.627Z,18.20
2022-07-30T03:10:12.882Z,18.20
2022-07-30T03:12:44.158Z,18.20
2022-07-30T03:15:13.078Z,18.20
2022-07-30T03:17:43.562Z,18.20
2022-07-30T03:20:15.503Z,18.20
2022-07-30T03:22:44.545Z,18.10
2022-07-30T03:25:15.210Z,18.10
2022-07-30T03:27:43.415Z,18.10
2022-07-30T03:30:12.150Z,18.00
2022-07-30T03:32:40.161Z,18.00
2022-07-30T03:35:16.901Z,18.00
2022-07-30T03:37:48.276Z,18.00
2022-07-30T03:40:15.903Z,17.90
2022-07-30T03:42:43.660Z,17.90
2022-07-30T03:45:12.615Z,17.90
2022-07-30T03:47:40.613Z,17.90
2022-07-30T03:50:09.081Z,18.00
2022-07-30T03:52:41.301Z,18.00
2022-07-30T03:55:13.245Z,18.00
2022-07-30T03:57:45.923Z,18.00
2022-07-30T04:00:14.512Z,18.00
2022-07-30T04:02:46.266Z,18.00
2022-07-30T04:05:27.955Z,18.00
2022-07-30T04:08:05.085Z,18.00
2022-07-30T04:10:34.721Z,18.00
2022-07-30T04:13:19.860Z,18.00
2022-07-30T04:16:38.015Z,18.00
2022-07-30T04:18:49.901Z,18.00
2022-07-30T04:24:04.297Z,18.10
2022-07-30T04:26:34.981Z,18.10
2022-07-30T04:29:05.028Z,18.10
2022-07-30T04:31:32.329Z,18.20
2022-07-30T04:34:22.707Z,18.20
2022-07-30T04:36:49.641Z,18.30
2022-07-30T04:39:18.393Z,18.30
2022-07-30T04:41:49.683Z,18.30
2022-07-30T04:44:37.240Z,18.40
2022-07-30T04:47:24.730Z,18.40
2022-07-30T04:50:14.984Z,18.50
2022-07-30T04:52:44.115Z,18.50
2022-07-30T04:55:14.738Z,18.60
2022-07-30T04:57:43.614Z,18.60
2022-07-30T05:00:11.859Z,18.60
2022-07-30T05:02:41.636Z,18.60
2022-07-30T05:05:10.771Z,18.60
2022-07-30T05:07:38.796Z,18.60
2022-07-30T05:10:07.444Z,18.70
2022-07-30T05:12:36.167Z,18.70
2022-07-30T05:15:03.847Z,18.70
2022-07-30T05:17:30.648Z,18.70
2022-07-30T05:19:57.447Z,18.70
2022-07-30T05:22:27.525Z,18.70
2022-07-30T05:24:55.141Z,18.70
2022-07-30T05:27:23.116Z,18.70
2022-07-30T05:29:51.442Z,18.80
2022-07-30T05:32:20.179Z,18.80
2022-07-30T05:34:49.908Z,18.90
2022-07-30T05:37:17.552Z,18.90
2022-07-30T05:39:57.295Z,18.90
2022-07-30T05:42:58.852Z,19.00
2022-07-30T05:45:27.044Z,19.10
2022-07-30T05:47:53.972Z,19.10
2022-07-30T05:50:20.679Z,19.20
2022-07-30T05:52:47.824Z,19.20
2022-07-30T05:55:49.547Z,19.30
2022-07-30T05:58:36.631Z,19.30
2022-07-30T06:04:00.458Z,19.50
2022-07-30T06:06:49.583Z,19.60
2022-07-30T06:09:16.663Z,19.70
2022-07-30T06:11:49.308Z,19.80
2022-07-30T06:14:16.675Z,20.00
2022-07-30T06:16:45.163Z,20.10
2022-07-30T06:19:19.590Z,20.20
2022-07-30T06:22:05.424Z,20.40
2022-07-30T06:24:35.368Z,20.60
2022-07-30T06:27:14.488Z,20.80
2022-07-30T06:29:41.791Z,21.00
2022-07-30T06:32:10.658Z,21.20
2022-07-30T06:34:37.505Z,21.50
2022-07-30T06:37:04.530Z,21.70
2022-07-30T06:39:53.783Z,22.00
2022-07-30T06:42:18.722Z,22.40
2022-07-30T06:45:21.187Z,22.90
2022-07-30T06:48:11.202Z,22.90
2022-07-30T06:50:38.081Z,22.90
2022-07-30T06:53:06.082Z,23.00
2022-07-30T06:55:54.412Z,23.20
2022-07-30T06:58:27.520Z,23.40
2022-07-30T07:03:59.854Z,24.00
2022-07-30T07:06:26.510Z,24.30
2022-07-30T07:08:53.310Z,24.50
2022-07-30T07:11:27.173Z,24.90
2022-07-30T07:13:56.285Z,25.10
2022-07-30T07:16:32.248Z,25.50
2022-07-30T07:19:06.263Z,25.90
2022-07-30T07:21:33.017Z,25.70
2022-07-30T07:23:59.795Z,25.40
2022-07-30T07:26:49.533Z,25.30
2022-07-30T07:29:17.627Z,25.10
2022-07-30T07:32:05.279Z,24.90
2022-07-30T07:34:33.606Z,24.70
2022-07-30T07:37:00.808Z,24.70
2022-07-30T07:39:27.648Z,24.60
2022-07-30T07:41:55.655Z,24.50
2022-07-30T07:44:24.734Z,24.50
2022-07-30T07:46:51.373Z,24.40
2022-07-30T07:49:18.598Z,24.50
2022-07-30T07:51:51.254Z,24.40
2022-07-30T07:54:22.055Z,24.50
2022-07-30T07:56:49.538Z,24.50
2022-07-30T07:59:17.259Z,24.40
2022-07-30T08:01:44.309Z,24.40
2022-07-30T08:04:17.009Z,24.30
2022-07-30T08:07:04.397Z,24.30
2022-07-30T08:09:57.824Z,24.30
2022-07-30T08:12:32.950Z,24.40
2022-07-30T08:15:21.922Z,24.50
2022-07-30T08:18:07.862Z,24.60
2022-07-30T08:21:10.020Z,24.60
2022-07-30T08:23:42.407Z,24.70
2022-07-30T08:26:10.052Z,24.70
2022-07-30T08:28:36.907Z,24.80
2022-07-30T08:31:06.557Z,24.80
2022-07-30T08:33:34.045Z,24.80
2022-07-30T08:36:04.020Z,24.80
2022-07-30T08:38:32.618Z,24.80
2022-07-30T08:41:00.899Z,24.80
2022-07-30T08:43:29.313Z,24.90
2022-07-30T08:45:59.320Z,24.90
2022-07-30T08:48:45.471Z,24.90
2022-07-30T08:51:16.821Z,25.00
2022-07-30T08:53:43.911Z,25.00
2022-07-30T08:56:12.644Z,25.20
2022-07-30T08:58:39.320Z,25.40
2022-07-30T09:03:58.126Z,26.60
2022-07-30T09:06:27.521Z,27.40
2022-07-30T09:08:54.769Z,27.90
2022-07-30T09:11:22.987Z,28.00
2022-07-30T09:13:50.783Z,28.30
2022-07-30T09:16:21.877Z,28.60
2022-07-30T09:18:49.340Z,29.10
2022-07-30T09:21:18.179Z,29.10
2022-07-30T09:23:56.816Z,29.30
2022-07-30T09:27:00.177Z,29.50
2022-07-30T09:29:56.452Z,29.50
2022-07-30T09:32:53.216Z,29.60
2022-07-30T09:35:35.042Z,29.70
2022-07-30T09:38:11.876Z,29.50
2022-07-30T09:41:00.121Z,29.30
2022-07-30T09:43:48.930Z,29.00
2022-07-30T09:46:46.496Z,28.70
2022-07-30T09:49:23.775Z,28.60
2022-07-30T09:51:56.168Z,29.30
2022-07-30T09:54:51.482Z,30.80
2022-07-30T09:57:26.387Z,31.30
2022-07-30T10:00:23.967Z,31.00
2022-07-30T10:03:21.528Z,30.90
2022-07-30T10:06:18.085Z,30.90
2022-07-30T10:08:48.847Z,30.70
2022-07-30T10:11:23.406Z,30.70
2022-07-30T10:13:57.381Z,30.80
2022-07-30T10:16:29.827Z,30.90
2022-07-30T10:18:58.828Z,30.90
2022-07-30T10:21:49.223Z,30.80
2022-07-30T10:24:40.169Z,30.90
2022-07-30T10:27:26.281Z,31.30
2022-07-30T10:30:20.138Z,31.30
2022-07-30T10:32:57.145Z,32.10
2022-07-30T10:35:34.334Z,32.80
2022-07-30T10:38:13.713Z,33.10
2022-07-30T10:40:50.242Z,33.00
2022-07-30T10:43:42.970Z,32.30
2022-07-30T10:46:22.829Z,31.60
2022-07-30T10:48:51.474Z,31.00
2022-07-30T10:51:25.428Z,30.50
2022-07-30T10:54:01.660Z,30.00
2022-07-30T10:56:28.490Z,29.70
2022-07-30T10:59:03.198Z,29.50
2022-07-30T11:02:08.224Z,29.40
2022-07-30T11:04:36.866Z,29.10
2022-07-30T11:07:29.063Z,28.80
2022-07-30T11:10:08.857Z,28.80
2022-07-30T11:12:55.306Z,28.70
2022-07-30T11:15:22.928Z,28.70
2022-07-30T11:18:13.967Z,28.60
2022-07-30T11:20:48.245Z,28.40
2022-07-30T11:23:39.030Z,28.10
2022-07-30T11:26:06.535Z,28.00
2022-07-30T11:28:38.964Z,27.90
2022-07-30T11:31:56.290Z,27.60
2022-07-30T11:34:27.877Z,27.40
2022-07-30T11:37:21.845Z,27.20
2022-07-30T11:40:09.454Z,27.10
2022-07-30T11:42:37.835Z,27.00
2022-07-30T11:45:24.724Z,26.90
2022-07-30T11:47:53.360Z,26.80
2022-07-30T11:50:21.466Z,26.80
2022-07-30T11:52:52.672Z,26.80
2022-07-30T11:55:24.151Z,26.80
2022-07-30T11:57:50.990Z,26.80
2022-07-30T12:00:17.842Z,26.80
2022-07-30T12:02:45.462Z,26.70
2022-07-30T12:05:12.776Z,26.80
2022-07-30T12:07:39.685Z,26.90
2022-07-30T12:10:16.129Z,26.90
2022-07-30T12:12:43.221Z,27.00
2022-07-30T12:15:10.813Z,27.00
2022-07-30T12:17:44.377Z,27.00
2022-07-30T12:20:17.028Z,26.90
2022-07-30T12:22:44.263Z,26.80
2022-07-30T12:25:12.127Z,26.70
2022-07-30T12:27:40.746Z,26.60
2022-07-30T12:30:08.881Z,26.50
2022-07-30T12:32:36.667Z,26.40
2022-07-30T12:35:03.839Z,26.40
2022-07-30T12:37:30.656Z,26.30
2022-07-30T12:40:14.591Z,26.40
2022-07-30T12:42:51.100Z,26.30
2022-07-30T12:45:28.978Z,26.10
2022-07-30T12:47:56.398Z,25.90
2022-07-30T12:50:23.768Z,25.60
2022-07-30T12:52:53.019Z,25.40
2022-07-30T12:55:29.595Z,25.30
2022-07-30T12:58:05.518Z,25.10
2022-07-30T13:00:47.943Z,25.00
2022-07-30T13:03:20.700Z,24.90
2022-07-30T13:05:49.060Z,24.80
2022-07-30T13:08:16.252Z,24.70
2022-07-30T13:10:56.467Z,24.70
2022-07-30T13:13:26.410Z,24.70
2022-07-30T13:16:01.098Z,24.70
2022-07-30T13:18:28.498Z,24.70
2022-07-30T13:20:55.453Z,24.70
2022-07-30T13:23:22.508Z,24.80
2022-07-30T13:25:49.359Z,25.00
2022-07-30T13:28:16.174Z,25.10
2022-07-30T13:30:44.328Z,25.30
2022-07-30T13:33:11.232Z,25.60
2022-07-30T13:35:38.307Z,26.00
2022-07-30T13:38:05.002Z,26.50
2022-07-30T13:40:32.822Z,26.90
2022-07-30T13:43:00.177Z,27.50
2022-07-30T13:45:27.205Z,28.00
2022-07-30T13:47:55.972Z,28.80
2022-07-30T13:50:22.685Z,28.80
2022-07-30T13:52:49.643Z,29.00
2022-07-30T13:55:16.452Z,29.10
2022-07-30T13:57:44.647Z,29.20
2022-07-30T14:00:13.010Z,29.30
2022-07-30T14:02:39.816Z,29.40
2022-07-30T14:05:08.563Z,29.60
2022-07-30T14:07:36.011Z,29.70
2022-07-30T14:10:04.164Z,29.90
2022-07-30T14:12:30.971Z,30.30
2022-07-30T14:14:57.561Z,30.40
2022-07-30T14:17:24.425Z,30.40
2022-07-30T14:19:51.281Z,30.40
2022-07-30T14:22:19.556Z,30.30
2022-07-30T14:24:46.333Z,30.30
2022-07-30T14:27:13.280Z,30.20
2022-07-30T14:29:40.179Z,30.10
2022-07-30T14:32:06.882Z,30.00
2022-07-30T14:34:33.698Z,30.00
2022-07-30T14:37:00.885Z,29.80
2022-07-30T14:39:29.321Z,29.70
2022-07-30T14:41:56.124Z,29.60
2022-07-30T14:44:23.271Z,29.50
2022-07-30T14:46:51.606Z,29.40
2022-07-30T14:49:18.753Z,29.40
2022-07-30T14:51:46.056Z,29.40
2022-07-30T14:54:12.815Z,29.30
2022-07-30T14:56:41.096Z,29.40
2022-07-30T14:59:07.941Z,29.40
2022-07-30T15:01:34.748Z,29.50
2022-07-30T15:04:02.325Z,29.80
2022-07-30T15:06:29.143Z,30.40
2022-07-30T15:08:55.920Z,30.70
2022-07-30T15:11:22.667Z,30.40
2022-07-30T15:13:51.159Z,30.30
2022-07-30T15:16:18.001Z,30.50
2022-07-30T15:18:44.760Z,30.90
2022-07-30T15:21:11.699Z,31.20
2022-07-30T15:23:38.455Z,31.40
2022-07-30T15:26:05.225Z,31.40
2022-07-30T15:28:31.936Z,31.10
2022-07-30T15:31:00.288Z,30.80
2022-07-30T15:33:27.065Z,30.60
2022-07-30T15:35:54.061Z,30.40
2022-07-30T15:38:22.726Z,30.30
2022-07-30T15:40:49.565Z,30.20
2022-07-30T15:43:16.267Z,30.10
2022-07-30T15:45:55.924Z,29.90
2022-07-30T15:48:27.002Z,29.80
2022-07-30T15:50:59.573Z,29.70
2022-07-30T15:53:26.316Z,29.70
2022-07-30T15:55:52.959Z,29.70
2022-07-30T15:58:19.678Z,30.10
2022-07-30T16:00:46.472Z,30.20
2022-07-30T16:03:13.199Z,30.30
2022-07-30T16:05:52.568Z,30.20
2022-07-30T16:08:19.747Z,30.30
2022-07-30T16:10:46.668Z,30.70
2022-07-30T16:13:13.417Z,30.80
2022-07-30T16:15:40.248Z,30.50
2022-07-30T16:18:06.892Z,30.20
2022-07-30T16:20:33.822Z,30.10
2022-07-30T16:23:01.979Z,29.90
2022-07-30T16:25:28.772Z,30.20
2022-07-30T16:27:55.513Z,30.50
2022-07-30T16:30:22.518Z,30.70
2022-07-30T16:32:49.263Z,30.90
2022-07-30T16:35:16.002Z,31.00
2022-07-30T16:37:42.697Z,31.20
2022-07-30T16:40:11.979Z,31.40
2022-07-30T16:42:38.705Z,31.40
2022-07-30T16:45:05.868Z,31.40
2022-07-30T16:47:33.660Z,31.40
2022-07-30T16:50:02.630Z,31.20
2022-07-30T16:52:29.457Z,30.90
2022-07-30T16:54:56.117Z,30.80
2022-07-30T16:57:24.277Z,30.70
2022-07-30T16:59:51.053Z,30.30
2022-07-30T17:02:17.847Z,30.40
2022-07-30T17:04:44.629Z,30.10
2022-07-30T17:07:11.288Z,29.70
2022-07-30T17:09:38.142Z,29.50
2022-07-30T17:12:05.509Z,29.50
2022-07-30T17:14:37.740Z,29.20
2022-07-30T17:17:04.474Z,29.10
2022-07-30T17:19:31.209Z,29.00
2022-07-30T17:21:57.991Z,28.80
2022-07-30T17:24:24.797Z,28.50
2022-07-30T17:26:51.591Z,28.30
2022-07-30T17:29:18.494Z,28.30
2022-07-30T17:31:46.695Z,28.10
2022-07-30T17:34:15.273Z,27.90
2022-07-30T17:36:51.990Z,27.60
2022-07-30T17:40:27.148Z,27.40
2022-07-30T17:42:08.058Z,27.10
2022-07-30T17:44:35.107Z,27.00
2022-07-30T17:47:03.342Z,26.80
2022-07-30T17:49:30.266Z,26.60
2022-07-30T17:51:57.295Z,26.50
2022-07-30T17:54:24.229Z,26.30
2022-07-30T17:56:51.096Z,26.20
2022-07-30T17:59:18.207Z,26.10
2022-07-30T18:01:45.291Z,25.90
2022-07-30T18:04:13.721Z,25.80
2022-07-30T18:06:40.729Z,25.60
2022-07-30T18:09:07.431Z,25.50
2022-07-30T18:11:34.292Z,25.40
2022-07-30T18:14:00.909Z,25.20
2022-07-30T18:16:27.757Z,25.10
2022-07-30T18:18:54.559Z,24.90
2022-07-30T18:21:22.715Z,24.80
2022-07-30T18:23:49.386Z,24.70
2022-07-30T18:26:16.344Z,24.50
2022-07-30T18:28:42.943Z,24.40
2022-07-30T18:31:09.871Z,24.40
2022-07-30T18:33:36.476Z,24.30
2022-07-30T18:36:03.698Z,24.20
2022-07-30T18:38:31.774Z,24.20
2022-07-30T18:40:58.601Z,24.20
2022-07-30T18:43:25.760Z,24.20
2022-07-30T18:45:52.837Z,24.10
2022-07-30T18:48:21.455Z,24.10
2022-07-30T18:50:48.378Z,24.10
2022-07-30T18:53:16.021Z,24.00
2022-07-30T18:55:44.633Z,24.00
2022-07-30T18:58:11.521Z,23.90
2022-07-30T19:00:38.413Z,23.90
2022-07-30T19:03:05.510Z,23.80
2022-07-30T19:05:32.328Z,23.70
2022-07-30T19:07:59.242Z,23.60
2022-07-30T19:10:26.620Z,23.50
2022-07-30T19:12:55.814Z,23.40
2022-07-30T19:15:22.704Z,23.30
2022-07-30T19:17:49.592Z,23.20
2022-07-30T19:20:16.207Z,23.20
2022-07-30T19:22:42.967Z,23.10
2022-07-30T19:25:09.951Z,23.00
2022-07-30T19:27:36.930Z,22.90
2022-07-30T19:30:06.092Z,22.80
2022-07-30T19:32:32.878Z,22.80
2022-07-30T19:34:59.564Z,22.70
2022-07-30T19:37:26.521Z,22.60
2022-07-30T19:40:05.801Z,22.50
2022-07-30T19:42:33.985Z,22.50
2022-07-30T19:47:49.245Z,22.30
2022-07-30T19:50:16.087Z,22.30
2022-07-30T19:52:51.208Z,22.20
2022-07-30T19:55:35.188Z,22.10
2022-07-30T19:58:04.099Z,22.10
2022-07-30T20:00:31.633Z,22.00
2022-07-30T20:03:04.177Z,21.90
2022-07-30T20:05:32.240Z,21.80
2022-07-30T20:08:24.436Z,21.80
2022-07-30T20:10:51.524Z,21.70
2022-07-30T20:13:19.477Z,21.60
2022-07-30T20:15:46.536Z,21.60
2022-07-30T20:18:14.831Z,21.50
2022-07-30T20:20:41.829Z,21.40
2022-07-30T20:23:08.577Z,21.30
2022-07-30T20:25:37.617Z,21.30
2022-07-30T20:28:04.905Z,21.20
2022-07-30T20:30:31.628Z,21.10
2022-07-30T20:32:58.871Z,21.10
2022-07-30T20:35:27.165Z,21.00
2022-07-30T20:37:56.606Z,20.90
2022-07-30T20:40:24.269Z,20.80
2022-07-30T20:42:54.263Z,20.80
2022-07-30T20:45:23.557Z,20.70
2022-07-30T20:47:52.000Z,20.70
2022-07-30T20:50:19.502Z,20.60
2022-07-30T20:52:59.289Z,20.50
2022-07-30T20:55:26.773Z,20.50
2022-07-30T20:58:00.391Z,20.40
2022-07-30T21:00:39.588Z,20.30
2022-07-30T21:03:06.908Z,20.30
2022-07-30T21:05:40.515Z,20.20
2022-07-30T21:08:08.693Z,20.20
2022-07-30T21:10:39.340Z,20.10
2022-07-30T21:13:07.601Z,20.10
2022-07-30T21:15:34.905Z,20.10
2022-07-30T21:18:03.503Z,20.00
2022-07-30T21:20:31.174Z,20.00
2022-07-30T21:23:03.749Z,19.90
2022-07-30T21:25:33.336Z,19.90
2022-07-30T21:28:02.937Z,19.80
2022-07-30T21:30:30.579Z,19.80
2022-07-30T21:32:57.575Z,19.70
2022-07-30T21:35:24.938Z,19.70
2022-07-30T21:37:58.541Z,19.60
2022-07-30T21:40:25.306Z,19.60
2022-07-30T21:42:53.612Z,19.60
2022-07-30T21:45:21.509Z,19.50
2022-07-30T21:47:48.347Z,19.50
2022-07-30T21:50:16.107Z,19.50
2022-07-30T21:52:43.216Z,19.50
2022-07-30T21:55:13.357Z,19.40
2022-07-30T21:57:42.102Z,19.40
2022-07-30T22:00:14.861Z,19.40
2022-07-30T22:02:52.999Z,19.40
2022-07-30T22:05:39.064Z,19.30
2022-07-30T22:08:07.154Z,19.30
2022-07-30T22:10:34.238Z,19.30
2022-07-30T22:13:03.312Z,19.20
2022-07-30T22:15:32.906Z,19.20
2022-07-30T22:18:00.980Z,19.20
2022-07-30T22:20:28.603Z,19.10
2022-07-30T22:22:56.065Z,19.10
2022-07-30T22:25:23.077Z,19.10
2022-07-30T22:28:06.305Z,19.10
2022-07-30T22:30:35.852Z,19.00
2022-07-30T22:33:10.993Z,19.00
2022-07-30T22:35:40.615Z,19.00
2022-07-30T22:38:14.256Z,19.00
2022-07-30T22:40:42.696Z,19.00
2022-07-30T22:43:13.326Z,18.90
2022-07-30T22:45:48.995Z,18.90
2022-07-30T22:48:17.307Z,18.90
2022-07-30T22:50:44.233Z,18.90
2022-07-30T22:56:02.107Z,18.90
2022-07-30T22:58:28.889Z,18.90
2022-07-30T23:00:57.860Z,18.90
2022-07-30T23:03:24.712Z,18.90
2022-07-30T23:05:55.322Z,18.90
2022-07-30T23:08:29.507Z,18.90
2022-07-30T23:10:57.676Z,18.90
2022-07-30T23:12:16.804Z,22.40
2022-07-30T23:12:34.188Z,18.90
2022-07-30T23:13:24.275Z,18.90
2022-07-30T23:15:51.096Z,18.90
2022-07-30T23:18:19.133Z,18.90
2022-07-30T23:20:45.956Z,18.90
2022-07-30T23:23:12.560Z,18.80
2022-07-30T23:25:39.504Z,18.80
2022-07-30T23:28:06.275Z,18.80
2022-07-30T23:30:33.861Z,18.80
2022-07-30T23:33:01.030Z,18.80
2022-07-30T23:35:29.198Z,18.80
2022-07-30T23:37:55.912Z,18.80
2022-07-30T23:40:23.028Z,18.70
2022-07-30T23:42:49.771Z,18.70
2022-07-30T23:45:16.756Z,18.70
2022-07-30T23:48:01.931Z,18.70
2022-07-30T23:50:32.160Z,18.60
2022-07-30T23:52:59.089Z,18.60
2022-07-30T23:55:26.013Z,18.50
2022-07-30T23:57:52.810Z,18.50
